sensor_id;sensor_type;location;lat;lon;timestamp;pressure;altitude;pressure_sealevel;temperature;humidity
69402;BME280;56589;51.992;5.924;2023-05-02T00:00:42;101397.81;;;10.98;70.13
69402;BME280;56589;51.992;5.924;2023-05-02T00:03:08;101398.47;;;11.01;70.43
69402;BME280;56589;51.992;5.924;2023-05-02T00:05:34;101396.78;;;11.00;70.36
69402;BME280;56589;51.992;5.924;2023-05-02T00:07:59;101396.88;;;10.99;70.55
69402;BME280;56589;51.992;5.924;2023-05-02T00:10:25;101394.50;;;10.94;70.35
69402;BME280;56589;51.992;5.924;2023-05-02T00:12:51;101396.44;;;10.91;70.30
69402;BME280;56589;51.992;5.924;2023-05-02T00:15:20;101399.25;;;10.88;70.43
69402;BME280;56589;51.992;5.924;2023-05-02T00:17:46;101402.81;;;10.87;70.08
69402;BME280;56589;51.992;5.924;2023-05-02T00:20:12;101401.13;;;10.86;69.91
69402;BME280;56589;51.992;5.924;2023-05-02T00:22:38;101403.13;;;10.80;69.92
69402;BME280;56589;51.992;5.924;2023-05-02T00:25:05;101398.03;;;10.77;70.27
69402;BME280;56589;51.992;5.924;2023-05-02T00:27:32;101402.34;;;10.78;70.26
69402;BME280;56589;51.992;5.924;2023-05-02T00:29:58;101394.75;;;10.74;70.10
69402;BME280;56589;51.992;5.924;2023-05-02T00:32:27;101405.50;;;10.69;69.95
69402;BME280;56589;51.992;5.924;2023-05-02T00:34:53;101407.28;;;10.69;70.03
69402;BME280;56589;51.992;5.924;2023-05-02T00:37:18;101408.13;;;10.69;69.89
69402;BME280;56589;51.992;5.924;2023-05-02T00:39:44;101419.38;;;10.71;70.19
69402;BME280;56589;51.992;5.924;2023-05-02T00:42:10;101410.50;;;10.74;70.31
69402;BME280;56589;51.992;5.924;2023-05-02T00:44:36;101413.22;;;10.72;69.78
69402;BME280;56589;51.992;5.924;2023-05-02T00:47:02;101411.59;;;10.70;69.93
69402;BME280;56589;51.992;5.924;2023-05-02T00:49:31;101417.69;;;10.70;70.07
69402;BME280;56589;51.992;5.924;2023-05-02T00:51:57;101413.22;;;10.72;70.09
69402;BME280;56589;51.992;5.924;2023-05-02T00:54:23;101417.69;;;10.70;70.33
69402;BME280;56589;51.992;5.924;2023-05-02T00:56:49;101416.69;;;10.73;70.24
69402;BME280;56589;51.992;5.924;2023-05-02T00:59:15;101417.34;;;10.76;70.28
69402;BME280;56589;51.992;5.924;2023-05-02T01:01:59;101423.34;;;10.78;70.41
69402;BME280;56589;51.992;5.924;2023-05-02T01:04:42;101421.66;;;10.77;70.15
69402;BME280;56589;51.992;5.924;2023-05-02T01:10:31;101413.78;;;10.77;70.25
69402;BME280;56589;51.992;5.924;2023-05-02T01:13:11;101418.19;;;10.77;70.05
69402;BME280;56589;51.992;5.924;2023-05-02T01:15:42;101419.22;;;10.74;70.06
69402;BME280;56589;51.992;5.924;2023-05-02T01:18:11;101417.34;;;10.76;70.21
69402;BME280;56589;51.992;5.924;2023-05-02T01:20:43;101414.72;;;10.76;69.97
69402;BME280;56589;51.992;5.924;2023-05-02T01:23:16;101418.19;;;10.77;70.28
69402;BME280;56589;51.992;5.924;2023-05-02T01:26:02;101415.34;;;10.81;70.80
69402;BME280;56589;51.992;5.924;2023-05-02T01:29:06;101425.00;;;10.81;70.82
69402;BME280;56589;51.992;5.924;2023-05-02T01:31:34;101416.94;;;10.84;70.58
69402;BME280;56589;51.992;5.924;2023-05-02T01:34:05;101426.72;;;10.82;70.50
69402;BME280;56589;51.992;5.924;2023-05-02T01:36:33;101424.00;;;10.83;70.54
69402;BME280;56589;51.992;5.924;2023-05-02T01:39:01;101430.94;;;10.84;71.17
69402;BME280;56589;51.992;5.924;2023-05-02T01:41:31;101435.19;;;10.87;70.86
69402;BME280;56589;51.992;5.924;2023-05-02T01:43:59;101443.16;;;10.86;71.45
69402;BME280;56589;51.992;5.924;2023-05-02T01:46:32;101441.44;;;10.84;71.23
69402;BME280;56589;51.992;5.924;2023-05-02T01:49:02;101444.00;;;10.86;71.84
69402;BME280;56589;51.992;5.924;2023-05-02T01:51:32;101443.16;;;10.86;71.56
69402;BME280;56589;51.992;5.924;2023-05-02T01:54:03;101446.69;;;10.84;71.80
69402;BME280;56589;51.992;5.924;2023-05-02T01:56:33;101449.25;;;10.86;71.73
69402;BME280;56589;51.992;5.924;2023-05-02T01:59:04;101442.22;;;10.87;71.62
69402;BME280;56589;51.992;5.924;2023-05-02T02:01:37;101445.84;;;10.84;72.25
69402;BME280;56589;51.992;5.924;2023-05-02T02:04:05;101451.09;;;10.84;72.00
69402;BME280;56589;51.992;5.924;2023-05-02T02:06:35;101458.84;;;10.87;71.90
69402;BME280;56589;51.992;5.924;2023-05-02T02:09:01;101457.16;;;10.86;71.93
69402;BME280;56589;51.992;5.924;2023-05-02T02:11:35;101452.88;;;10.83;72.30
69402;BME280;56589;51.992;5.924;2023-05-02T02:14:13;101455.66;;;10.80;72.74
69402;BME280;56589;51.992;5.924;2023-05-02T02:16:48;101462.19;;;10.73;72.84
69402;BME280;56589;51.992;5.924;2023-05-02T02:19:18;101462.56;;;10.66;73.26
69402;BME280;56589;51.992;5.924;2023-05-02T02:21:47;101462.06;;;10.59;73.33
69402;BME280;56589;51.992;5.924;2023-05-02T02:24:16;101464.94;;;10.54;73.00
69402;BME280;56589;51.992;5.924;2023-05-02T02:26:45;101474.22;;;10.44;73.31
69402;BME280;56589;51.992;5.924;2023-05-02T02:29:11;101482.34;;;10.40;73.74
69402;BME280;56589;51.992;5.924;2023-05-02T02:31:37;101480.50;;;10.42;73.42
69402;BME280;56589;51.992;5.924;2023-05-02T02:34:06;101483.19;;;10.40;73.53
69402;BME280;56589;51.992;5.924;2023-05-02T02:36:34;101494.84;;;10.35;72.99
69402;BME280;56589;51.992;5.924;2023-05-02T02:39:13;101491.53;;;10.31;73.56
69402;BME280;56589;51.992;5.924;2023-05-02T02:41:51;101504.44;;;10.18;72.95
69402;BME280;56589;51.992;5.924;2023-05-02T02:44:28;101506.91;;;10.04;72.61
69402;BME280;56589;51.992;5.924;2023-05-02T02:47:08;101510.13;;;9.92;72.91
69402;BME280;56589;51.992;5.924;2023-05-02T02:49:46;101517.47;;;9.85;73.06
69402;BME280;56589;51.992;5.924;2023-05-02T02:52:20;101509.69;;;9.84;72.63
69402;BME280;56589;51.992;5.924;2023-05-02T02:54:57;101513.31;;;9.81;72.66
69402;BME280;56589;51.992;5.924;2023-05-02T02:57:36;101513.22;;;9.83;72.28
69402;BME280;56589;51.992;5.924;2023-05-02T03:00:12;101519.31;;;9.83;72.29
69402;BME280;56589;51.992;5.924;2023-05-02T03:02:44;101524.03;;;9.76;72.66
69402;BME280;56589;51.992;5.924;2023-05-02T03:05:14;101516.16;;;9.76;72.20
69402;BME280;56589;51.992;5.924;2023-05-02T03:07:41;101511.03;;;9.73;72.28
69402;BME280;56589;51.992;5.924;2023-05-02T03:10:08;101521.53;;;9.73;72.58
69402;BME280;56589;51.992;5.924;2023-05-02T03:12:34;101523.25;;;9.74;72.43
69402;BME280;56589;51.992;5.924;2023-05-02T03:15:09;101532.66;;;9.79;72.37
69402;BME280;56589;51.992;5.924;2023-05-02T03:17:47;101534.22;;;9.83;72.17
69402;BME280;56589;51.992;5.924;2023-05-02T03:20:15;101529.91;;;9.82;72.14
69402;BME280;56589;51.992;5.924;2023-05-02T03:22:41;101536.84;;;9.83;72.18
69402;BME280;56589;51.992;5.924;2023-05-02T03:25:08;101544.00;;;9.79;72.17
69402;BME280;56589;51.992;5.924;2023-05-02T03:27:34;101539.00;;;9.74;71.90
69402;BME280;56589;51.992;5.924;2023-05-02T03:30:00;101542.69;;;9.70;72.08
69402;BME280;56589;51.992;5.924;2023-05-02T03:32:25;101535.78;;;9.68;72.07
69402;BME280;56589;51.992;5.924;2023-05-02T03:34:51;101545.59;;;9.64;71.81
69402;BME280;56589;51.992;5.924;2023-05-02T03:37:20;101554.50;;;9.60;71.61
69402;BME280;56589;51.992;5.924;2023-05-02T03:39:45;101552.97;;;9.56;71.95
69402;BME280;56589;51.992;5.924;2023-05-02T03:42:11;101564.44;;;9.54;71.63
69402;BME280;56589;51.992;5.924;2023-05-02T03:44:37;101564.72;;;9.47;71.62
69402;BME280;56589;51.992;5.924;2023-05-02T03:47:03;101566.66;;;9.44;71.99
69402;BME280;56589;51.992;5.924;2023-05-02T03:49:29;101568.56;;;9.40;72.10
69402;BME280;56589;51.992;5.924;2023-05-02T03:51:54;101561.63;;;9.39;72.01
69402;BME280;56589;51.992;5.924;2023-05-02T03:54:23;101569.41;;;9.41;71.73
69402;BME280;56589;51.992;5.924;2023-05-02T03:56:49;101571.91;;;9.44;71.73
69402;BME280;56589;51.992;5.924;2023-05-02T03:59:14;101578.84;;;9.45;72.13
69402;BME280;56589;51.992;5.924;2023-05-02T04:01:40;101585.56;;;9.51;71.67
69402;BME280;56589;51.992;5.924;2023-05-02T04:04:06;101581.94;;;9.53;71.48
69402;BME280;56589;51.992;5.924;2023-05-02T04:06:32;101576.78;;;9.52;71.56
69402;BME280;56589;51.992;5.924;2023-05-02T04:08:58;101582.25;;;9.47;71.64
69402;BME280;56589;51.992;5.924;2023-05-02T04:11:26;101584.09;;;9.45;71.39
69402;BME280;56589;51.992;5.924;2023-05-02T04:13:52;101586.84;;;9.42;71.74
69402;BME280;56589;51.992;5.924;2023-05-02T04:16:18;101583.44;;;9.40;71.52
69402;BME280;56589;51.992;5.924;2023-05-02T04:18:43;101591.50;;;9.35;71.07
69402;BME280;56589;51.992;5.924;2023-05-02T04:21:09;101596.97;;;9.31;71.40
69402;BME280;56589;51.992;5.924;2023-05-02T04:23:35;101595.34;;;9.28;71.44
69402;BME280;56589;51.992;5.924;2023-05-02T04:26:01;101600.66;;;9.27;71.29
69402;BME280;56589;51.992;5.924;2023-05-02T04:28:29;101604.81;;;9.31;71.26
69402;BME280;56589;51.992;5.924;2023-05-02T04:30:56;101617.03;;;9.32;71.19
69402;BME280;56589;51.992;5.924;2023-05-02T04:33:22;101616.03;;;9.34;71.12
69402;BME280;56589;51.992;5.924;2023-05-02T04:35:48;101622.13;;;9.35;71.38
69402;BME280;56589;51.992;5.924;2023-05-02T04:38:14;101625.59;;;9.35;71.05
69402;BME280;56589;51.992;5.924;2023-05-02T04:40:40;101636.88;;;9.37;70.64
69402;BME280;56589;51.992;5.924;2023-05-02T04:43:06;101639.41;;;9.39;70.40
69402;BME280;56589;51.992;5.924;2023-05-02T04:45:36;101645.50;;;9.39;70.70
69402;BME280;56589;51.992;5.924;2023-05-02T04:48:02;101654.88;;;9.45;70.42
69402;BME280;56589;51.992;5.924;2023-05-02T04:50:28;101651.44;;;9.43;69.30
69402;BME280;56589;51.992;5.924;2023-05-02T04:52:54;101653.44;;;9.38;69.26
69402;BME280;56589;51.992;5.924;2023-05-02T04:55:20;101662.44;;;9.32;68.58
69402;BME280;56589;51.992;5.924;2023-05-02T04:57:46;101664.31;;;9.29;68.67
69402;BME280;56589;51.992;5.924;2023-05-02T05:00:14;101673.84;;;9.31;68.80
69402;BME280;56589;51.992;5.924;2023-05-02T05:02:44;101669.44;;;9.32;68.68
69402;BME280;56589;51.992;5.924;2023-05-02T05:05:10;101671.00;;;9.36;68.31
69402;BME280;56589;51.992;5.924;2023-05-02T05:07:36;101676.09;;;9.39;68.26
69402;BME280;56589;51.992;5.924;2023-05-02T05:10:02;101691.00;;;9.38;68.14
69402;BME280;56589;51.992;5.924;2023-05-02T05:12:28;101692.75;;;9.38;67.76
69402;BME280;56589;51.992;5.924;2023-05-02T05:14:54;101691.03;;;9.37;67.08
69402;BME280;56589;51.992;5.924;2023-05-02T05:17:19;101692.09;;;9.33;67.39
69402;BME280;56589;51.992;5.924;2023-05-02T05:19:48;101697.34;;;9.33;66.77
69402;BME280;56589;51.992;5.924;2023-05-02T05:22:14;101702.72;;;9.30;67.08
69402;BME280;56589;51.992;5.924;2023-05-02T05:24:39;101706.25;;;9.29;66.83
69402;BME280;56589;51.992;5.924;2023-05-02T05:27:05;101712.34;;;9.29;66.50
69402;BME280;56589;51.992;5.924;2023-05-02T05:29:31;101723.63;;;9.31;66.97
69402;BME280;56589;51.992;5.924;2023-05-02T05:31:57;101723.41;;;9.36;66.45
69402;BME280;56589;51.992;5.924;2023-05-02T05:34:23;101723.41;;;9.36;66.50
69402;BME280;56589;51.992;5.924;2023-05-02T05:36:51;101725.91;;;9.39;66.52
69402;BME280;56589;51.992;5.924;2023-05-02T05:39:17;101732.56;;;9.46;66.40
69402;BME280;56589;51.992;5.924;2023-05-02T05:41:43;101731.72;;;9.45;66.51
69402;BME280;56589;51.992;5.924;2023-05-02T05:44:09;101737.09;;;9.42;66.23
69402;BME280;56589;51.992;5.924;2023-05-02T05:46:34;101738.00;;;9.41;66.47
69402;BME280;56589;51.992;5.924;2023-05-02T05:49:00;101744.84;;;9.45;66.16
69402;BME280;56589;51.992;5.924;2023-05-02T05:51:26;101746.53;;;9.46;66.00
69402;BME280;56589;51.992;5.924;2023-05-02T05:53:54;101751.91;;;9.43;65.85
69402;BME280;56589;51.992;5.924;2023-05-02T05:56:20;101759.78;;;9.43;65.77
69402;BME280;56589;51.992;5.924;2023-05-02T05:58:46;101765.72;;;9.47;64.80
69402;BME280;56589;51.992;5.924;2023-05-02T06:01:12;101764.22;;;9.41;65.26
69402;BME280;56589;51.992;5.924;2023-05-02T06:03:37;101780.94;;;9.39;64.90
69402;BME280;56589;51.992;5.924;2023-05-02T06:06:04;101790.38;;;9.43;65.33
69402;BME280;56589;51.992;5.924;2023-05-02T06:08:30;101792.13;;;9.42;65.06
69402;BME280;56589;51.992;5.924;2023-05-02T06:10:58;101794.72;;;9.44;65.15
69402;BME280;56589;51.992;5.924;2023-05-02T06:13:24;101800.06;;;9.41;64.72
69402;BME280;56589;51.992;5.924;2023-05-02T06:15:50;101798.50;;;9.37;64.86
69402;BME280;56589;51.992;5.924;2023-05-02T06:18:16;101807.41;;;9.33;64.36
69402;BME280;56589;51.992;5.924;2023-05-02T06:20:42;101816.31;;;9.29;64.73
69402;BME280;56589;51.992;5.924;2023-05-02T06:23:08;101815.69;;;9.22;64.69
69402;BME280;56589;51.992;5.924;2023-05-02T06:25:36;101814.06;;;9.19;65.07
69402;BME280;56589;51.992;5.924;2023-05-02T06:28:05;101814.00;;;9.21;64.83
69402;BME280;56589;51.992;5.924;2023-05-02T06:30:30;101819.09;;;9.26;65.00
69402;BME280;56589;51.992;5.924;2023-05-02T06:32:56;101821.50;;;9.30;64.27
69402;BME280;56589;51.992;5.924;2023-05-02T06:35:22;101819.59;;;9.34;64.40
69402;BME280;56589;51.992;5.924;2023-05-02T06:37:48;101843.72;;;9.42;64.36
69402;BME280;56589;51.992;5.924;2023-05-02T06:40:14;101844.25;;;9.50;64.19
69402;BME280;56589;51.992;5.924;2023-05-02T06:42:40;101836.13;;;9.56;63.71
69402;BME280;56589;51.992;5.924;2023-05-02T06:45:09;101836.06;;;9.58;63.65
69402;BME280;56589;51.992;5.924;2023-05-02T06:47:35;101855.34;;;9.57;63.25
69402;BME280;56589;51.992;5.924;2023-05-02T06:50:01;101858.91;;;9.54;63.57
69402;BME280;56589;51.992;5.924;2023-05-02T06:52:27;101864.31;;;9.51;62.94
69402;BME280;56589;51.992;5.924;2023-05-02T06:54:53;101867.78;;;9.52;63.10
69402;BME280;56589;51.992;5.924;2023-05-02T06:57:18;101867.53;;;9.58;63.23
69402;BME280;56589;51.992;5.924;2023-05-02T06:59:44;101864.63;;;9.64;62.74
69402;BME280;56589;51.992;5.924;2023-05-02T07:02:13;101875.06;;;9.65;62.72
69402;BME280;56589;51.992;5.924;2023-05-02T07:04:38;101875.72;;;9.70;62.33
69402;BME280;56589;51.992;5.924;2023-05-02T07:07:05;101885.28;;;9.71;61.67
69402;BME280;56589;51.992;5.924;2023-05-02T07:09:30;101874.19;;;9.65;61.17
69402;BME280;56589;51.992;5.924;2023-05-02T07:11:56;101883.06;;;9.62;61.40
69402;BME280;56589;51.992;5.924;2023-05-02T07:14:22;101896.88;;;9.66;61.52
69402;BME280;56589;51.992;5.924;2023-05-02T07:16:48;101889.59;;;9.72;61.62
69402;BME280;56589;51.992;5.924;2023-05-02T07:19:16;101892.81;;;9.79;60.29
69402;BME280;56589;51.992;5.924;2023-05-02T07:21:42;101905.06;;;9.79;60.44
69402;BME280;56589;51.992;5.924;2023-05-02T07:24:08;101902.53;;;9.77;60.08
69402;BME280;56589;51.992;5.924;2023-05-02T07:26:34;101907.78;;;9.77;59.93
69402;BME280;56589;51.992;5.924;2023-05-02T07:29:00;101909.22;;;9.84;60.21
69402;BME280;56589;51.992;5.924;2023-05-02T07:31:25;101911.63;;;9.89;59.58
69402;BME280;56589;51.992;5.924;2023-05-02T07:33:51;101917.59;;;9.92;59.59
69402;BME280;56589;51.992;5.924;2023-05-02T07:36:19;101912.22;;;9.95;59.22
69402;BME280;56589;51.992;5.924;2023-05-02T07:38:45;101925.28;;;9.97;59.06
69402;BME280;56589;51.992;5.924;2023-05-02T07:41:12;101920.59;;;10.03;58.99
69402;BME280;56589;51.992;5.924;2023-05-02T07:43:38;101923.03;;;10.08;58.18
69402;BME280;56589;51.992;5.924;2023-05-02T07:46:04;101922.13;;;10.09;58.45
69402;BME280;56589;51.992;5.924;2023-05-02T07:48:30;101917.66;;;10.11;58.08
69402;BME280;56589;51.992;5.924;2023-05-02T07:51:04;101928.75;;;10.18;57.75
69402;BME280;56589;51.992;5.924;2023-05-02T07:53:33;101929.53;;;10.20;58.06
69402;BME280;56589;51.992;5.924;2023-05-02T07:55:59;101937.47;;;10.18;58.00
69402;BME280;56589;51.992;5.924;2023-05-02T07:58:25;101945.03;;;10.06;57.51
69402;BME280;56589;51.992;5.924;2023-05-02T08:00:51;101940.69;;;9.84;58.20
69402;BME280;56589;51.992;5.924;2023-05-02T08:03:16;101952.28;;;9.58;58.56
69402;BME280;56589;51.992;5.924;2023-05-02T08:05:42;101951.31;;;9.39;59.04
69402;BME280;56589;51.992;5.924;2023-05-02T08:08:08;101954.50;;;9.25;59.33
69402;BME280;56589;51.992;5.924;2023-05-02T08:10:36;101949.41;;;9.20;59.08
69402;BME280;56589;51.992;5.924;2023-05-02T08:13:02;101957.34;;;9.19;59.42
69402;BME280;56589;51.992;5.924;2023-05-02T08:15:28;101967.69;;;9.22;59.23
69402;BME280;56589;51.992;5.924;2023-05-02T08:17:54;101967.13;;;9.37;59.86
69402;BME280;56589;51.992;5.924;2023-05-02T08:20:19;101963.53;;;9.60;59.21
69402;BME280;56589;51.992;5.924;2023-05-02T08:22:45;101970.78;;;9.75;59.18
69402;BME280;56589;51.992;5.924;2023-05-02T08:25:11;101972.56;;;9.95;59.21
69402;BME280;56589;51.992;5.924;2023-05-02T08:27:39;101979.66;;;10.14;58.12
69402;BME280;56589;51.992;5.924;2023-05-02T08:30:06;101988.84;;;10.24;57.78
69402;BME280;56589;51.992;5.924;2023-05-02T08:32:33;101982.31;;;10.33;57.10
69402;BME280;56589;51.992;5.924;2023-05-02T08:35:00;101987.69;;;10.50;56.81
69402;BME280;56589;51.992;5.924;2023-05-02T08:37:25;101991.28;;;10.68;56.03
69402;BME280;56589;51.992;5.924;2023-05-02T08:39:51;101992.16;;;10.87;56.45
69402;BME280;56589;51.992;5.924;2023-05-02T08:42:17;101995.44;;;11.11;55.10
69402;BME280;56589;51.992;5.924;2023-05-02T08:44:47;101990.38;;;11.25;54.46
69402;BME280;56589;51.992;5.924;2023-05-02T08:47:14;101995.13;;;11.36;53.89
69402;BME280;56589;51.992;5.924;2023-05-02T08:49:43;102000.75;;;11.64;52.70
69402;BME280;56589;51.992;5.924;2023-05-02T08:52:11;101989.25;;;12.02;52.50
69402;BME280;56589;51.992;5.924;2023-05-02T08:54:38;102000.25;;;12.27;51.29
69402;BME280;56589;51.992;5.924;2023-05-02T08:57:05;102006.28;;;12.29;50.18
69402;BME280;56589;51.992;5.924;2023-05-02T08:59:32;102001.53;;;12.18;50.04
69402;BME280;56589;51.992;5.924;2023-05-02T09:02:11;102002.53;;;12.16;50.06
69402;BME280;56589;51.992;5.924;2023-05-02T09:04:53;101999.91;;;12.16;50.23
69402;BME280;56589;51.992;5.924;2023-05-02T09:07:19;102015.72;;;12.16;50.09
69402;BME280;56589;51.992;5.924;2023-05-02T09:09:44;102010.00;;;12.08;49.47
69402;BME280;56589;51.992;5.924;2023-05-02T09:12:10;102017.66;;;11.95;49.28
69402;BME280;56589;51.992;5.924;2023-05-02T09:14:36;102022.66;;;12.00;50.07
69402;BME280;56589;51.992;5.924;2023-05-02T09:17:05;102018.97;;;12.04;48.80
69402;BME280;56589;51.992;5.924;2023-05-02T09:19:30;102029.81;;;11.98;49.01
69402;BME280;56589;51.992;5.924;2023-05-02T09:22:00;102027.63;;;11.88;48.08
69402;BME280;56589;51.992;5.924;2023-05-02T09:24:26;102032.28;;;11.83;48.36
69402;BME280;56589;51.992;5.924;2023-05-02T09:26:57;102038.22;;;11.87;48.14
69402;BME280;56589;51.992;5.924;2023-05-02T09:29:26;102036.38;;;11.89;47.71
69402;BME280;56589;51.992;5.924;2023-05-02T09:31:52;102042.81;;;11.83;47.51
69402;BME280;56589;51.992;5.924;2023-05-02T09:34:21;102041.06;;;11.82;46.27
69402;BME280;56589;51.992;5.924;2023-05-02T09:36:48;102047.00;;;11.69;46.00
69402;BME280;56589;51.992;5.924;2023-05-02T09:39:16;102043.53;;;11.68;47.19
69402;BME280;56589;51.992;5.924;2023-05-02T09:41:44;102035.31;;;12.10;47.87
69402;BME280;56589;51.992;5.924;2023-05-02T09:44:13;102044.78;;;12.98;47.96
69402;BME280;56589;51.992;5.924;2023-05-02T09:46:40;102044.94;;;13.90;47.13
69402;BME280;56589;51.992;5.924;2023-05-02T09:49:07;102042.63;;;14.44;45.68
69402;BME280;56589;51.992;5.924;2023-05-02T09:51:35;102050.91;;;14.68;43.58
69402;BME280;56589;51.992;5.924;2023-05-02T09:54:02;102055.69;;;14.61;42.91
69402;BME280;56589;51.992;5.924;2023-05-02T09:56:29;102051.56;;;14.27;41.34
69402;BME280;56589;51.992;5.924;2023-05-02T09:59:13;102071.09;;;13.78;40.42
69402;BME280;56589;51.992;5.924;2023-05-02T10:01:40;102068.63;;;13.28;41.79
69402;BME280;56589;51.992;5.924;2023-05-02T10:04:06;102060.38;;;13.03;42.68
69402;BME280;56589;51.992;5.924;2023-05-02T10:06:39;102060.59;;;12.98;43.77
69402;BME280;56589;51.992;5.924;2023-05-02T10:09:05;102061.28;;;13.50;44.04
69402;BME280;56589;51.992;5.924;2023-05-02T10:11:32;102047.59;;;14.20;43.10
69402;BME280;56589;51.992;5.924;2023-05-02T10:13:59;102054.38;;;14.54;42.49
69402;BME280;56589;51.992;5.924;2023-05-02T10:16:26;102067.44;;;14.85;41.97
69402;BME280;56589;51.992;5.924;2023-05-02T10:18:58;102064.31;;;15.22;41.15
69402;BME280;56589;51.992;5.924;2023-05-02T10:21:30;102053.50;;;15.25;40.49
69402;BME280;56589;51.992;5.924;2023-05-02T10:24:00;102059.56;;;15.27;40.79
69402;BME280;56589;51.992;5.924;2023-05-02T10:26:26;102061.06;;;15.31;40.11
69402;BME280;56589;51.992;5.924;2023-05-02T10:28:52;102053.25;;;15.15;39.25
69402;BME280;56589;51.992;5.924;2023-05-02T10:31:21;102060.84;;;14.78;38.69
69402;BME280;56589;51.992;5.924;2023-05-02T10:33:49;102059.56;;;14.55;39.91
69402;BME280;56589;51.992;5.924;2023-05-02T10:36:19;102060.22;;;14.59;39.65
69402;BME280;56589;51.992;5.924;2023-05-02T10:38:47;102067.22;;;14.60;38.49
69402;BME280;56589;51.992;5.924;2023-05-02T10:41:20;102064.47;;;14.47;38.64
69402;BME280;56589;51.992;5.924;2023-05-02T10:43:50;102069.66;;;14.49;38.35
69402;BME280;56589;51.992;5.924;2023-05-02T10:46:35;102072.38;;;14.47;38.48
69402;BME280;56589;51.992;5.924;2023-05-02T10:49:03;102068.16;;;14.59;38.73
69402;BME280;56589;51.992;5.924;2023-05-02T10:51:31;102068.66;;;14.80;38.61
69402;BME280;56589;51.992;5.924;2023-05-02T10:54:19;102073.97;;;15.08;37.92
69402;BME280;56589;51.992;5.924;2023-05-02T10:57:04;102067.59;;;15.11;37.60
69402;BME280;56589;51.992;5.924;2023-05-02T10:59:33;102074.41;;;15.15;38.25
69402;BME280;56589;51.992;5.924;2023-05-02T11:02:01;102079.84;;;15.26;36.92
69402;BME280;56589;51.992;5.924;2023-05-02T11:07:23;102073.97;;;15.08;35.87
69402;BME280;56589;51.992;5.924;2023-05-02T11:09:49;102083.00;;;14.76;37.09
69402;BME280;56589;51.992;5.924;2023-05-02T11:12:44;102072.41;;;14.62;37.34
69402;BME280;56589;51.992;5.924;2023-05-02T11:15:11;102086.22;;;14.81;37.16
69402;BME280;56589;51.992;5.924;2023-05-02T11:17:58;102066.00;;;14.94;37.25
69402;BME280;56589;51.992;5.924;2023-05-02T11:20:24;102065.84;;;14.97;37.28
69402;BME280;56589;51.992;5.924;2023-05-02T11:22:51;102077.91;;;14.87;37.56
69402;BME280;56589;51.992;5.924;2023-05-02T11:25:32;102069.31;;;14.83;36.31
69402;BME280;56589;51.992;5.924;2023-05-02T11:28:04;102071.31;;;14.80;37.07
69402;BME280;56589;51.992;5.924;2023-05-02T11:30:39;102068.09;;;14.89;36.86
69402;BME280;56589;51.992;5.924;2023-05-02T11:33:13;102057.88;;;15.11;36.91
69402;BME280;56589;51.992;5.924;2023-05-02T11:35:41;102064.09;;;15.25;36.79
69402;BME280;56589;51.992;5.924;2023-05-02T11:38:10;102074.00;;;15.35;36.15
69402;BME280;56589;51.992;5.924;2023-05-02T11:40:37;102076.66;;;15.35;36.77
69402;BME280;56589;51.992;5.924;2023-05-02T11:43:14;102081.25;;;15.46;36.57
69402;BME280;56589;51.992;5.924;2023-05-02T11:45:41;102078.47;;;15.62;36.61
69402;BME280;56589;51.992;5.924;2023-05-02T11:48:08;102084.22;;;15.69;35.80
69402;BME280;56589;51.992;5.924;2023-05-02T11:50:41;102077.91;;;15.71;35.50
69402;BME280;56589;51.992;5.924;2023-05-02T11:53:10;102080.06;;;15.79;35.93
69402;BME280;56589;51.992;5.924;2023-05-02T11:55:36;102080.94;;;15.92;36.35
69402;BME280;56589;51.992;5.924;2023-05-02T11:58:02;102086.09;;;16.08;35.84
69402;BME280;56589;51.992;5.924;2023-05-02T12:00:31;102084.69;;;16.02;34.99
69402;BME280;56589;51.992;5.924;2023-05-02T12:02:57;102090.13;;;15.86;35.27
69402;BME280;56589;51.992;5.924;2023-05-02T12:05:27;102093.00;;;15.69;35.39
69402;BME280;56589;51.992;5.924;2023-05-02T12:07:53;102097.94;;;15.61;35.93
69402;BME280;56589;51.992;5.924;2023-05-02T12:10:19;102098.63;;;15.64;35.48
69402;BME280;56589;51.992;5.924;2023-05-02T12:12:45;102101.34;;;15.63;35.32
69402;BME280;56589;51.992;5.924;2023-05-02T12:15:12;102101.78;;;15.43;34.85
69402;BME280;56589;51.992;5.924;2023-05-02T12:17:46;102102.75;;;15.13;35.03
69402;BME280;56589;51.992;5.924;2023-05-02T12:20:13;102108.72;;;15.17;35.52
69402;BME280;56589;51.992;5.924;2023-05-02T12:22:40;102102.69;;;15.15;34.93
69402;BME280;56589;51.992;5.924;2023-05-02T12:25:07;102105.78;;;15.07;35.20
69402;BME280;56589;51.992;5.924;2023-05-02T12:27:33;102108.44;;;14.93;35.14
69402;BME280;56589;51.992;5.924;2023-05-02T12:29:59;102107.75;;;14.75;35.09
69402;BME280;56589;51.992;5.924;2023-05-02T12:32:30;102126.63;;;14.69;34.53
69402;BME280;56589;51.992;5.924;2023-05-02T12:35:00;102125.03;;;14.50;35.03
69402;BME280;56589;51.992;5.924;2023-05-02T12:37:27;102124.56;;;14.44;35.08
69402;BME280;56589;51.992;5.924;2023-05-02T12:39:54;102126.16;;;14.46;35.28
69402;BME280;56589;51.992;5.924;2023-05-02T12:42:21;102122.78;;;14.58;35.54
69402;BME280;56589;51.992;5.924;2023-05-02T12:44:50;102118.53;;;14.72;35.20
69402;BME280;56589;51.992;5.924;2023-05-02T12:47:17;102126.94;;;14.93;35.25
69402;BME280;56589;51.992;5.924;2023-05-02T12:49:47;102131.19;;;14.95;35.50
69402;BME280;56589;51.992;5.924;2023-05-02T12:52:17;102126.19;;;14.91;35.17
69402;BME280;56589;51.992;5.924;2023-05-02T12:54:42;102115.03;;;14.85;35.34
69402;BME280;56589;51.992;5.924;2023-05-02T12:57:09;102136.78;;;14.91;35.25
69402;BME280;56589;51.992;5.924;2023-05-02T12:59:35;102130.44;;;14.93;35.43
69402;BME280;56589;51.992;5.924;2023-05-02T13:02:00;102129.00;;;15.02;35.79
69402;BME280;56589;51.992;5.924;2023-05-02T13:04:33;102123.91;;;15.13;35.54
69402;BME280;56589;51.992;5.924;2023-05-02T13:06:59;102132.06;;;15.10;35.66